M I D A S
Marine Information and Data Acquisition System
Tripno 257 of the Zeeleeuw from 2001-12-07 06:15:00 to 2001-12-07 16:30:00
Back to CruiseResearch ActivitiesStationsMapUnderway DataData graphs

EquipmentUnitsComments
TimeDGPSUTC
LatitudeDGPSDM.mWGS84
LongitudeDGPSDM.mWGS84
SpeedMeteo Stationm/sRelative wind speed
DirectionMeteo StationdegRelative wind direction
TemperatureMeteo Stationdeg CelciusAir temperature
PressureMeteo StationPaAtmospheric pressure
HumidityMeteo Station%Relative humidity
Missing or incorrect values are displayed as -999
Metereological data collected by the RV Zeeleeuw from 2001-12-07 06:15:00 to 2001-12-07 16:30:00
                                                                                    Next 1000 lines
Time Latitude Longitude Speed Direction Temperature Pressure Humidity
2001-12-07 08:31:04 51°15.6 2°54.496 4 317 4.4 103800 90
2001-12-07 08:31:09 51°15.619 2°54.493 4.6 304 4.4 103790 90
2001-12-07 08:31:14 51°15.638 2°54.49 4.1 313 4.4 103790 90
2001-12-07 08:31:19 51°15.657 2°54.486 4.1 317 4.4 103780 90
2001-12-07 08:31:24 51°15.676 2°54.482 4.6 318 4.4 103780 90
2001-12-07 08:31:29 51°15.695 2°54.477 4 315 4.4 103790 90
2001-12-07 08:31:35 51°15.718 2°54.47 4.2 319 4.4 103790 90
2001-12-07 08:31:39 51°15.733 2°54.466 4.4 318 4.5 103790 90
2001-12-07 08:31:44 51°15.752 2°54.459 4 312 4.5 103790 90
2001-12-07 08:31:49 51°15.771 2°54.452 3.6 319 4.4 103790 90
2001-12-07 08:31:56 51°15.797 2°54.44 3.2 312 4.4 103790 90
2001-12-07 08:31:59 51°15.808 2°54.434 3.2 320 4.5 103790 90
2001-12-07 08:32:05 51°15.83 2°54.422 3.3 318 4.5 103790 90
2001-12-07 08:32:09 51°15.844 2°54.414 4 324 4.5 103790 90
2001-12-07 08:32:14 51°15.863 2°54.405 3.9 321 4.5 103790 90
2001-12-07 08:32:19 51°15.882 2°54.397 4.2 322 4.5 103790 90
2001-12-07 08:32:24 51°15.901 2°54.389 4.2 313 4.5 103790 90
2001-12-07 08:32:29 51°15.919 2°54.382 4.1 310 4.5 103790 90
2001-12-07 08:32:35 51°15.942 2°54.375 3.5 315 4.5 103790 90
2001-12-07 08:32:39 51°15.958 2°54.371 3.7 312 4.5 103790 90
2001-12-07 08:32:45 51°15.981 2°54.366 3.9 307 4.5 103790 90
2001-12-07 08:32:50 51°16 2°54.361 4.1 322 4.5 103790 90
2001-12-07 08:32:56 51°16.023 2°54.355 3.8 310 4.5 103790 90
2001-12-07 08:33:00 51°16.038 2°54.351 3.9 303 4.5 103790 90
2001-12-07 08:33:03 51°16.049 2°54.348 3.2 289 4.5 103790 90
2001-12-07 08:33:09 51°16.07 2°54.343 3.1 295 4.5 103790 90
2001-12-07 08:33:14 51°16.087 2°54.339 2.9 288 4.5 103790 90
2001-12-07 08:33:20 51°16.107 2°54.334 2.6 276 4.7 103790 90
2001-12-07 08:33:24 51°16.12 2°54.331 2.3 276 4.7 103790 90
2001-12-07 08:33:29 51°16.135 2°54.328 2.6 274 4.5 103790 90
2001-12-07 08:33:35 51°16.152 2°54.325 2.4 268 4.5 103790 90
2001-12-07 08:33:39 51°16.164 2°54.323 2.2 252 4.6 103790 90
2001-12-07 08:33:45 51°16.179 2°54.321 2.1 255 4.6 103790 90
2001-12-07 08:33:49 51°16.189 2°54.321 2.3 247 4.6 103790 90
2001-12-07 08:33:55 51°16.202 2°54.32 2.4 244 4.6 103790 90
2001-12-07 08:34:00 51°16.212 2°54.321 2.2 233 4.6 103780 90
2001-12-07 08:34:04 51°16.22 2°54.321 2.6 217 4.6 103780 90
2001-12-07 08:34:09 51°16.227 2°54.322 2.7 199 4.6 103790 90
2001-12-07 08:34:15 51°16.236 2°54.322 2.4 199 4.6 103790 90
2001-12-07 08:34:19 51°16.241 2°54.322 2 201 4.6 103790 90
2001-12-07 08:34:25 51°16.247 2°54.321 2.4 194 4.6 103790 90
2001-12-07 08:34:29 51°16.25 2°54.321 3.2 201 4.6 103790 90
2001-12-07 08:34:33 51°16.252 2°54.321 3.4 209 4.6 103790 90
2001-12-07 08:34:39 51°16.255 2°54.32 2.6 199 4.6 103790 90
2001-12-07 08:34:45 51°16.258 2°54.32 3 197 4.6 103790 90
2001-12-07 08:34:49 51°16.26 2°54.319 3.4 194 4.7 103780 90
2001-12-07 08:34:55 51°16.261 2°54.318 4 198 4.7 103780 90
2001-12-07 08:34:59 51°16.262 2°54.318 3.6 206 4.7 103780 90
2001-12-07 08:35:05 51°16.263 2°54.317 3.9 204 4.7 103780 90
2001-12-07 08:35:10 51°16.264 2°54.316 4.4 204 4.8 103780 91
2001-12-07 08:35:14 51°16.265 2°54.316 3.8 201 4.8 103780 91
2001-12-07 08:35:20 51°16.266 2°54.315 3.8 203 4.8 103780 91
2001-12-07 08:35:24 51°16.267 2°54.314 4.1 201 4.8 103780 91
2001-12-07 08:35:30 51°16.267 2°54.313 4.4 201 4.8 103780 91
2001-12-07 08:35:34 51°16.266 2°54.311 4.9 196 4.8 103780 91
2001-12-07 08:35:40 51°16.265 2°54.309 4.5 201 4.7 103780 91
2001-12-07 08:35:45 51°16.265 2°54.307 4.3 203 4.7 103780 91
2001-12-07 08:35:49 51°16.264 2°54.306 4.3 207 4.8 103780 91
2001-12-07 08:35:55 51°16.263 2°54.304 4.4 200 4.8 103780 91
2001-12-07 08:36:00 51°16.263 2°54.302 3.6 198 4.8 103780 90
2001-12-07 08:36:06 51°16.263 2°54.3 3.7 201 4.8 103780 90
2001-12-07 08:36:10 51°16.264 2°54.3 3.7 201 4.9 103780 90
2001-12-07 08:36:15 51°16.266 2°54.299 3.4 197 4.9 103780 90
2001-12-07 08:36:20 51°16.268 2°54.298 3.2 190 4.8 103780 90
2001-12-07 08:36:25 51°16.27 2°54.297 3.2 187 4.8 103780 90
2001-12-07 08:36:30 51°16.273 2°54.297 2.5 189 4.9 103780 90
2001-12-07 08:36:35 51°16.275 2°54.296 3.1 189 4.9 103780 90
2001-12-07 08:36:39 51°16.277 2°54.295 3.4 182 4.9 103780 90
2001-12-07 08:36:44 51°16.279 2°54.294 3.9 186 4.9 103780 90
2001-12-07 08:36:49 51°16.281 2°54.293 3.7 186 4.9 103780 90
2001-12-07 08:36:55 51°16.282 2°54.292 3.9 186 4.9 103780 90
2001-12-07 08:36:59 51°16.283 2°54.291 4.5 179 4.9 103790 90
2001-12-07 08:37:05 51°16.283 2°54.29 3.9 181 4.9 103790 90
2001-12-07 08:37:09 51°16.283 2°54.289 4.1 185 4.9 103790 90
2001-12-07 08:37:14 51°16.284 2°54.289 4.2 182 4.9 103790 90
2001-12-07 08:37:19 51°16.284 2°54.288 3.5 181 4.9 103790 90
2001-12-07 08:37:25 51°16.284 2°54.287 3.1 179 4.9 103790 90
2001-12-07 08:37:30 51°16.285 2°54.286 3.7 180 4.9 103790 90
2001-12-07 08:37:35 51°16.285 2°54.285 4 179 4.9 103790 90
2001-12-07 08:37:39 51°16.286 2°54.285 4.7 183 4.9 103790 90
2001-12-07 08:37:45 51°16.286 2°54.284 4.9 182 4.9 103790 90
2001-12-07 08:37:49 51°16.286 2°54.283 4.4 184 4.9 103790 90
2001-12-07 08:37:55 51°16.287 2°54.282 4.4 177 4.9 103790 90
2001-12-07 08:37:59 51°16.287 2°54.282 4.2 180 4.9 103790 90
2001-12-07 08:38:05 51°16.288 2°54.281 4.1 179 4.9 103790 90
2001-12-07 08:38:09 51°16.289 2°54.28 4.3 184 5 103790 90
2001-12-07 08:38:14 51°16.289 2°54.279 4.3 178 5 103790 90
2001-12-07 08:38:19 51°16.29 2°54.278 4.8 178 4.9 103790 90
2001-12-07 08:38:25 51°16.29 2°54.277 4.6 181 4.9 103790 90
2001-12-07 08:38:29 51°16.291 2°54.276 4.4 180 4.9 103790 89
2001-12-07 08:38:35 51°16.292 2°54.275 3.8 177 4.9 103790 89
2001-12-07 08:38:40 51°16.292 2°54.274 3.8 182 4.9 103790 89
2001-12-07 08:38:45 51°16.293 2°54.273 3.8 179 4.9 103790 89
2001-12-07 08:38:49 51°16.294 2°54.272 4.1 183 4.9 103790 89
2001-12-07 08:38:55 51°16.295 2°54.271 4.3 179 4.9 103790 89
2001-12-07 08:38:59 51°16.295 2°54.27 4.2 176 4.9 103790 89
2001-12-07 08:39:04 51°16.296 2°54.269 4.2 182 4.9 103790 89
2001-12-07 08:39:10 51°16.297 2°54.267 4.8 181 4.8 103790 89
2001-12-07 08:39:15 51°16.298 2°54.266 4.5 182 4.8 103790 89
2001-12-07 08:39:19 51°16.298 2°54.265 4.3 183 4.9 103790 89
2001-12-07 08:39:25 51°16.299 2°54.264 4.4 183 4.9 103790 89
2001-12-07 08:39:29 51°16.3 2°54.263 4.2 182 4.9 103790 89
2001-12-07 08:39:34 51°16.301 2°54.262 4 183 4.9 103790 89
2001-12-07 08:39:39 51°16.302 2°54.261 4 178 4.9 103790 89
2001-12-07 08:39:44 51°16.303 2°54.26 4.1 182 4.9 103790 89
2001-12-07 08:39:50 51°16.304 2°54.259 4.6 181 4.9 103790 89
2001-12-07 08:39:53 51°16.305 2°54.258 3.8 183 4.9 103790 89
2001-12-07 08:39:59 51°16.306 2°54.257 4 182 4.9 103790 89
2001-12-07 08:40:04 51°16.307 2°54.256 3.6 186 4.9 103790 89
2001-12-07 08:40:10 51°16.308 2°54.254 3.8 185 4.9 103790 89
2001-12-07 08:40:15 51°16.309 2°54.253 4.1 183 4.9 103790 89
2001-12-07 08:40:19 51°16.31 2°54.252 4.2 189 4.9 103790 89
2001-12-07 08:40:24 51°16.311 2°54.251 3.9 185 4.9 103790 89
2001-12-07 08:40:30 51°16.312 2°54.25 4.2 191 4.9 103790 89
2001-12-07 08:40:35 51°16.313 2°54.249 4.7 189 4.9 103790 89
2001-12-07 08:40:39 51°16.314 2°54.248 3.9 191 4.9 103790 89
2001-12-07 08:40:45 51°16.315 2°54.247 3.8 191 4.9 103790 89
2001-12-07 08:40:49 51°16.316 2°54.246 3.8 193 4.9 103790 89
2001-12-07 08:40:54 51°16.317 2°54.246 3.3 194 4.9 103790 89
2001-12-07 08:40:59 51°16.318 2°54.244 4.4 192 4.9 103790 89
2001-12-07 08:41:05 51°16.32 2°54.243 4 193 4.9 103790 89
2001-12-07 08:41:09 51°16.321 2°54.243 3.9 200 4.9 103790 89
2001-12-07 08:41:14 51°16.322 2°54.242 3.5 197 4.9 103790 89
2001-12-07 08:41:19 51°16.323 2°54.241 3.1 193 4.9 103790 89
2001-12-07 08:41:24 51°16.324 2°54.24 3.7 199 4.9 103790 89
2001-12-07 08:41:29 51°16.325 2°54.239 3.8 196 4.9 103780 89
2001-12-07 08:41:34 51°16.326 2°54.239 3.7 196 4.9 103780 89
2001-12-07 08:41:40 51°16.328 2°54.238 4.1 199 4.9 103790 89
2001-12-07 08:41:45 51°16.329 2°54.237 4 200 4.9 103790 89
2001-12-07 08:41:49 51°16.33 2°54.236 3.8 196 4.9 103780 89
2001-12-07 08:41:55 51°16.331 2°54.236 3.6 197 4.9 103780 89
2001-12-07 08:41:59 51°16.332 2°54.235 3.8 198 4.9 103790 88
2001-12-07 08:42:05 51°16.333 2°54.234 3.9 203 4.9 103790 88
2001-12-07 08:42:10 51°16.334 2°54.234 3.9 201 4.9 103790 88
2001-12-07 08:42:15 51°16.335 2°54.233 3.9 201 4.9 103790 88
2001-12-07 08:42:19 51°16.336 2°54.232 3.8 207 4.9 103790 88
2001-12-07 08:42:25 51°16.338 2°54.231 4.1 205 4.9 103790 88
2001-12-07 08:42:29 51°16.338 2°54.231 3.7 207 4.9 103780 88
2001-12-07 08:42:34 51°16.34 2°54.23 3.7 202 4.9 103780 88
2001-12-07 08:42:40 51°16.341 2°54.23 3.7 206 4.9 103790 88
2001-12-07 08:42:45 51°16.342 2°54.229 4 207 4.9 103790 88
2001-12-07 08:42:49 51°16.343 2°54.228 4.1 212 4.8 103790 88
2001-12-07 08:42:54 51°16.344 2°54.228 4.1 209 4.8 103790 88
2001-12-07 08:42:59 51°16.345 2°54.227 3.9 207 4.8 103780 88
2001-12-07 08:43:04 51°16.346 2°54.227 3.7 208 4.8 103780 88
2001-12-07 08:43:09 51°16.347 2°54.226 4.3 211 4.8 103780 88
2001-12-07 08:43:14 51°16.348 2°54.226 4.1 204 4.8 103780 88
2001-12-07 08:43:20 51°16.35 2°54.225 4.3 208 4.9 103780 88
2001-12-07 08:43:25 51°16.351 2°54.225 4.2 203 4.9 103780 88
2001-12-07 08:43:29 51°16.352 2°54.224 4 207 4.8 103790 88
2001-12-07 08:43:35 51°16.353 2°54.224 4 211 4.8 103790 88
2001-12-07 08:43:39 51°16.353 2°54.223 4.2 208 4.9 103780 88
2001-12-07 08:43:44 51°16.354 2°54.223 4 215 4.9 103780 88
2001-12-07 08:43:49 51°16.355 2°54.222 3.9 216 4.9 103790 88
2001-12-07 08:43:55 51°16.356 2°54.222 3.7 212 4.9 103790 88
2001-12-07 08:43:59 51°16.357 2°54.221 4 205 4.8 103790 88
2001-12-07 08:44:05 51°16.358 2°54.221 3.7 219 4.8 103790 88
2001-12-07 08:44:09 51°16.359 2°54.22 3.6 221 4.8 103780 88
2001-12-07 08:44:15 51°16.36 2°54.22 4.1 210 4.8 103780 88
2001-12-07 08:44:19 51°16.361 2°54.22 4.2 216 4.9 103790 88
2001-12-07 08:44:25 51°16.362 2°54.219 3.9 217 4.9 103790 88
2001-12-07 08:44:34 51°16.364 2°54.219 3.7 224 4.9 103790 88
2001-12-07 08:44:39 51°16.365 2°54.218 3.6 219 4.9 103780 89
2001-12-07 08:44:45 51°16.366 2°54.218 3.5 222 4.9 103780 89
2001-12-07 08:44:50 51°16.367 2°54.218 3.8 214 4.9 103780 89
2001-12-07 08:44:55 51°16.368 2°54.217 4 225 4.9 103780 89
2001-12-07 08:45:00 51°16.369 2°54.217 4.1 223 5 103790 89
2001-12-07 08:45:05 51°16.369 2°54.217 4 229 5 103790 89
2001-12-07 08:45:09 51°16.37 2°54.216 3.7 226 5 103790 89
2001-12-07 08:45:15 51°16.371 2°54.216 3.8 227 5 103790 89
2001-12-07 08:45:20 51°16.372 2°54.216 4.1 231 5 103780 89
2001-12-07 08:45:24 51°16.373 2°54.216 4 227 5 103780 89
2001-12-07 08:45:29 51°16.374 2°54.215 4.1 228 5 103790 89
2001-12-07 08:45:35 51°16.375 2°54.215 4.2 230 5 103790 89
2001-12-07 08:45:39 51°16.375 2°54.214 3.9 316 5 103780 89
2001-12-07 08:45:44 51°16.376 2°54.214 4 225 5 103780 89
2001-12-07 08:45:50 51°16.377 2°54.214 4.1 222 5 103790 89
2001-12-07 08:45:55 51°16.378 2°54.214 3.8 218 5 103790 89
2001-12-07 08:45:59 51°16.379 2°54.213 4.3 227 5 103780 89
2001-12-07 08:46:04 51°16.379 2°54.213 4.1 226 5 103780 89
2001-12-07 08:46:08 51°16.38 2°54.213 4 230 5 103790 89
2001-12-07 08:46:15 51°16.381 2°54.213 4 230 5 103790 89
2001-12-07 08:46:20 51°16.382 2°54.212 4 232 5 103790 89
2001-12-07 08:46:24 51°16.383 2°54.212 4.4 231 5 103790 89
2001-12-07 08:46:30 51°16.383 2°54.212 4.1 238 4.8 103790 88
2001-12-07 08:46:34 51°16.384 2°54.212 3.9 223 4.8 103790 88
2001-12-07 08:46:39 51°16.385 2°54.211 4.1 224 5 103790 88
2001-12-07 08:46:45 51°16.386 2°54.211 4.1 226 5 103790 88
2001-12-07 08:46:50 51°16.386 2°54.211 4.1 224 5 103780 88
2001-12-07 08:46:54 51°16.387 2°54.211 3.8 233 5 103780 88
2001-12-07 08:46:59 51°16.388 2°54.21 3.7 227 5 103790 88
2001-12-07 08:47:04 51°16.389 2°54.21 3.8 239 5 103790 88
2001-12-07 08:47:10 51°16.389 2°54.21 4 246 5 103790 88
2001-12-07 08:47:15 51°16.39 2°54.21 3.9 226 5 103790 88
2001-12-07 08:47:19 51°16.391 2°54.21 3.7 234 5 103790 88
2001-12-07 08:47:25 51°16.392 2°54.209 4 241 5 103790 88
2001-12-07 08:47:29 51°16.392 2°54.209 4 236 5 103790 89
2001-12-07 08:47:34 51°16.393 2°54.209 4 237 5 103790 89
2001-12-07 08:47:39 51°16.394 2°54.209 3.7 231 5.1 103780 89
2001-12-07 08:47:44 51°16.394 2°54.208 3.9 243 5.1 103780 89
2001-12-07 08:47:49 51°16.395 2°54.208 3.7 235 5.1 103790 89
2001-12-07 08:47:55 51°16.396 2°54.208 4.1 235 5.1 103790 89
2001-12-07 08:47:59 51°16.396 2°54.207 4.2 237 5.2 103790 89
2001-12-07 08:48:05 51°16.397 2°54.207 4.4 232 5.2 103790 89
2001-12-07 08:48:09 51°16.398 2°54.207 4.2 237 5.2 103790 89
2001-12-07 08:48:15 51°16.399 2°54.207 4.1 230 5.2 103790 89
2001-12-07 08:48:20 51°16.4 2°54.207 4.1 241 5.2 103790 89
2001-12-07 08:48:25 51°16.4 2°54.206 4.2 242 5.2 103790 89
2001-12-07 08:48:30 51°16.401 2°54.206 3.9 238 5.2 103790 89
2001-12-07 08:48:35 51°16.402 2°54.206 4.2 240 5.2 103790 89
2001-12-07 08:48:40 51°16.402 2°54.205 4.3 236 5.2 103790 89
2001-12-07 08:48:45 51°16.403 2°54.205 4.3 241 5.2 103790 89
2001-12-07 08:48:50 51°16.404 2°54.205 4 230 5.2 103790 89
2001-12-07 08:48:55 51°16.405 2°54.205 4.4 231 5.2 103790 89
2001-12-07 08:48:59 51°16.405 2°54.205 4 232 5.2 103790 88
2001-12-07 08:49:05 51°16.406 2°54.204 4.3 239 5.2 103790 88
2001-12-07 08:49:09 51°16.407 2°54.204 4.2 240 5.1 103790 88
2001-12-07 08:49:15 51°16.407 2°54.204 4.1 237 5.1 103790 88
2001-12-07 08:49:19 51°16.408 2°54.203 4 242 5.1 103790 88
2001-12-07 08:49:24 51°16.409 2°54.203 4.2 231 5.1 103790 88
2001-12-07 08:49:29 51°16.41 2°54.203 4.1 234 5.1 103790 88
2001-12-07 08:49:35 51°16.41 2°54.203 4.3 242 5.1 103790 88
2001-12-07 08:49:40 51°16.411 2°54.202 4.2 234 5.1 103790 88
2001-12-07 08:49:45 51°16.412 2°54.202 4.1 233 5.1 103790 88
2001-12-07 08:49:49 51°16.413 2°54.202 4.2 233 5.1 103790 88
2001-12-07 08:49:55 51°16.414 2°54.201 4.5 236 5.1 103790 88
2001-12-07 08:49:59 51°16.414 2°54.201 4.4 234 5.1 103790 88
2001-12-07 08:50:05 51°16.415 2°54.201 3.8 230 5.1 103790 88
2001-12-07 08:50:10 51°16.416 2°54.2 4.1 238 5.1 103790 88
2001-12-07 08:50:15 51°16.417 2°54.2 3.9 228 5.1 103790 88
2001-12-07 08:50:20 51°16.418 2°54.2 3.9 233 5.1 103780 88
2001-12-07 08:50:24 51°16.418 2°54.2 3.9 235 5.1 103780 88
2001-12-07 08:50:29 51°16.42 2°54.2 3.8 226 5.1 103790 88
2001-12-07 08:50:35 51°16.422 2°54.201 3.7 226 5.1 103790 88
2001-12-07 08:50:39 51°16.423 2°54.202 3.7 233 5.1 103790 88
2001-12-07 08:50:45 51°16.426 2°54.204 3.6 225 5.1 103790 88
2001-12-07 08:50:50 51°16.429 2°54.205 3.4 220 5.1 103790 88
2001-12-07 08:50:55 51°16.432 2°54.206 3.5 215 5.1 103790 88
2001-12-07 08:51:00 51°16.435 2°54.207 3.4 217 5.1 103790 88
2001-12-07 08:51:04 51°16.438 2°54.207 3.4 209 5.1 103790 88
2001-12-07 08:51:10 51°16.443 2°54.207 2.9 198 5.1 103790 88
2001-12-07 08:51:14 51°16.446 2°54.207 3.1 190 5.1 103790 88
2001-12-07 08:51:19 51°16.45 2°54.206 2.8 183 5.1 103790 88
2001-12-07 08:51:25 51°16.455 2°54.203 2.5 181 5.1 103790 88
2001-12-07 08:51:29 51°16.459 2°54.201 2.3 170 5.1 103790 88
2001-12-07 08:51:35 51°16.464 2°54.196 2.1 159 5.1 103790 88
2001-12-07 08:51:39 51°16.469 2°54.191 1.4 120 5.1 103800 88
2001-12-07 08:51:44 51°16.474 2°54.184 1.6 112 5.1 103800 88
2001-12-07 08:51:50 51°16.48 2°54.173 0.7 55 5.1 103790 88
2001-12-07 08:51:55 51°16.486 2°54.162 0.3 134 5.1 103790 88
2001-12-07 08:51:59 51°16.491 2°54.153 0.6 88 5.1 103790 88
2001-12-07 08:52:05 51°16.497 2°54.138 0.6 83 5.1 103790 88
2001-12-07 08:52:10 51°16.503 2°54.124 0.6 94 5.1 103790 88
2001-12-07 08:52:14 51°16.508 2°54.112 0.6 85 5.1 103790 88
2001-12-07 08:52:19 51°16.514 2°54.098 0.4 76 5.1 103790 88
2001-12-07 08:52:24 51°16.52 2°54.082 0.3 69 5.1 103790 88
2001-12-07 08:52:29 51°16.526 2°54.066 0.2 349 5.2 103800 88
2001-12-07 08:52:35 51°16.533 2°54.046 0.5 336 5.2 103800 88
2001-12-07 08:52:40 51°16.539 2°54.029 0.6 257 5.1 103800 88
2001-12-07 08:52:44 51°16.544 2°54.015 0.8 246 5.1 103800 88
2001-12-07 08:52:49 51°16.551 2°53.998 0.6 240 5.1 103790 88
2001-12-07 08:52:55 51°16.56 2°53.977 0.7 232 5.1 103790 88
2001-12-07 08:52:59 51°16.565 2°53.964 0.4 218 5.1 103790 88
2001-12-07 08:53:04 51°16.572 2°53.947 0.6 219 5.1 103790 88
2001-12-07 08:53:09 51°16.58 2°53.93 1 221 5.1 103800 88
2001-12-07 08:53:15 51°16.589 2°53.909 0.9 230 5.1 103800 88
2001-12-07 08:53:19 51°16.595 2°53.895 1.1 270 5.2 103790 88
2001-12-07 08:53:25 51°16.603 2°53.874 1.3 358 5.2 103790 88
2001-12-07 08:53:29 51°16.61 2°53.86 1.1 1 5.1 103800 88
2001-12-07 08:53:34 51°16.617 2°53.843 1 4 5.1 103800 88
2001-12-07 08:53:41 51°16.628 2°53.818 0.8 39 5.2 103800 88
2001-12-07 08:53:44 51°16.633 2°53.808 0.6 47 5.2 103800 88
2001-12-07 08:53:50 51°16.643 2°53.788 0.8 11 5.2 103790 88
2001-12-07 08:53:55 51°16.651 2°53.771 1 39 5.2 103790 88
2001-12-07 08:54:00 51°16.659 2°53.754 0.7 27 5.2 103800 88
2001-12-07 08:54:04 51°16.665 2°53.741 0.6 27 5.2 103800 88
2001-12-07 08:54:09 51°16.674 2°53.724 0.5 317 5.2 103800 88
2001-12-07 08:54:14 51°16.682 2°53.707 0.7 38 5.2 103800 88
2001-12-07 08:54:19 51°16.69 2°53.69 0.7 34 5.2 103800 88
2001-12-07 08:54:25 51°16.699 2°53.669 0.9 20 5.2 103800 88
2001-12-07 08:54:29 51°16.705 2°53.655 1.3 45 5.3 103800 88
2001-12-07 08:54:35 51°16.714 2°53.634 1.2 33 5.3 103800 88
2001-12-07 08:54:39 51°16.72 2°53.62 1.6 22 5.3 103800 88
2001-12-07 08:54:45 51°16.729 2°53.598 1.1 24 5.3 103800 88
2001-12-07 08:54:49 51°16.735 2°53.583 1 204 5.3 103800 88
2001-12-07 08:54:55 51°16.743 2°53.562 2 139 5.3 103800 88
2001-12-07 08:54:59 51°16.749 2°53.547 1.6 357 5.4 103800 88
2001-12-07 08:55:05 51°16.758 2°53.526 0.8 63 5.4 103800 88
2001-12-07 08:55:09 51°16.764 2°53.511 0.4 75 5.3 103800 88
2001-12-07 08:55:15 51°16.774 2°53.49 0.3 17 5.3 103800 88
2001-12-07 08:55:19 51°16.78 2°53.477 0.4 13 5.3 103800 88
2001-12-07 08:55:25 51°16.79 2°53.456 1.3 318 5.3 103800 88
2001-12-07 08:55:29 51°16.797 2°53.443 1 253 5.3 103800 88
2001-12-07 08:55:35 51°16.806 2°53.422 0.6 249 5.3 103800 88
2001-12-07 08:55:39 51°16.813 2°53.408 0.6 255 5.3 103800 88
2001-12-07 08:55:46 51°16.824 2°53.384 0.5 232 5.3 103800 88
2001-12-07 08:55:49 51°16.829 2°53.374 0.2 264 5.3 103800 88
2001-12-07 08:55:53 51°16.835 2°53.36 1.3 24 5.3 103800 88
2001-12-07 08:55:59 51°16.845 2°53.339 1.2 328 5.3 103800 88
2001-12-07 08:56:05 51°16.854 2°53.318 0.9 240 5.3 103800 88
2001-12-07 08:56:09 51°16.86 2°53.304 0.6 251 5.4 103800 88
2001-12-07 08:56:15 51°16.869 2°53.283 1.6 251 5.4 103800 88
2001-12-07 08:56:19 51°16.875 2°53.268 1.2 229 5.4 103800 88
2001-12-07 08:56:26 51°16.885 2°53.243 1.5 219 5.4 103800 88
2001-12-07 08:56:29 51°16.89 2°53.232 0.5 220 5.4 103800 88
2001-12-07 08:56:34 51°16.897 2°53.215 0.5 231 5.4 103800 88
2001-12-07 08:56:40 51°16.906 2°53.193 0.8 258 5.4 103800 88
2001-12-07 08:56:45 51°16.913 2°53.176 1.7 339 5.4 103800 88
2001-12-07 08:56:50 51°16.921 2°53.159 1.3 38 5.4 103800 88
2001-12-07 08:56:55 51°16.929 2°53.142 1.1 337 5.4 103800 88
2001-12-07 08:56:59 51°16.936 2°53.128 1.2 244 5.5 103800 88
2001-12-07 08:57:05 51°16.945 2°53.107 1.1 115 5.5 103800 88
2001-12-07 08:57:09 51°16.952 2°53.094 1.4 133 5.5 103790 88
2001-12-07 08:57:15 51°16.961 2°53.074 1.1 309 5.5 103790 88
2001-12-07 08:57:20 51°16.969 2°53.057 0.9 185 5.5 103800 89
2001-12-07 08:57:25 51°16.977 2°53.04 0.4 23 5.5 103800 89
2001-12-07 08:57:30 51°16.985 2°53.023 0.2 85 5.5 103810 89
2001-12-07 08:57:35 51°16.994 2°53.006 0.1 10 5.5 103810 89
2001-12-07 08:57:39 51°17 2°52.992 0.8 36 5.5 103800 88
2001-12-07 08:57:45 51°17.01 2°52.973 0.7 23 5.5 103800 88
2001-12-07 08:57:51 51°17.021 2°52.953 0.5 56 5.5 103800 88
2001-12-07 08:57:55 51°17.028 2°52.939 0.8 32 5.5 103800 88
2001-12-07 08:57:59 51°17.034 2°52.926 0.9 28 5.5 103810 88
2001-12-07 08:58:05 51°17.045 2°52.906 0.5 34 5.5 103810 88
2001-12-07 08:58:09 51°17.051 2°52.892 0.4 31 5.5 103800 88
2001-12-07 08:58:15 51°17.061 2°52.872 0.3 40 5.5 103800 88
2001-12-07 08:58:19 51°17.068 2°52.859 0.3 87 5.5 103800 88
2001-12-07 08:58:25 51°17.079 2°52.839 0.6 34 5.5 103800 88
2001-12-07 08:58:31 51°17.089 2°52.819 1 26 5.5 103800 88
2001-12-07 08:58:34 51°17.094 2°52.809 0.9 352 5.5 103800 88
2001-12-07 08:58:40 51°17.104 2°52.788 1.1 255 5.6 103800 88
2001-12-07 08:58:46 51°17.113 2°52.768 0.7 250 5.6 103800 88
2001-12-07 08:58:51 51°17.121 2°52.751 0.5 235 5.6 103800 88
2001-12-07 08:58:55 51°17.128 2°52.737 0.5 236 5.6 103800 88
2001-12-07 08:59:00 51°17.136 2°52.719 0.4 204 5.6 103800 88
2001-12-07 08:59:06 51°17.146 2°52.699 0.6 17 5.6 103800 88
2001-12-07 08:59:10 51°17.153 2°52.686 0.4 71 5.6 103800 88
2001-12-07 08:59:14 51°17.16 2°52.673 0.3 83 5.6 103800 88
2001-12-07 08:59:19 51°17.169 2°52.657 0.2 67 5.7 103800 88
2001-12-07 08:59:26 51°17.182 2°52.635 0.2 66 5.7 103800 88
2001-12-07 08:59:30 51°17.189 2°52.623 0.5 66 5.7 103800 88
2001-12-07 08:59:35 51°17.198 2°52.606 0.9 44 5.7 103800 88
2001-12-07 08:59:41 51°17.208 2°52.586 0.8 46 5.7 103800 88
2001-12-07 08:59:45 51°17.215 2°52.573 0.8 26 5.7 103800 88
2001-12-07 08:59:50 51°17.224 2°52.557 0.8 319 5.7 103800 88
2001-12-07 08:59:55 51°17.233 2°52.54 0.9 42 5.7 103800 88
2001-12-07 09:00:00 51°17.242 2°52.524 0.7 317 5.7 103800 88
2001-12-07 09:00:05 51°17.252 2°52.509 0.6 46 5.7 103800 88
2001-12-07 09:00:10 51°17.262 2°52.493 0.3 63 5.8 103800 88
2001-12-07 09:00:16 51°17.273 2°52.475 0.4 56 5.8 103800 88
2001-12-07 09:00:20 51°17.281 2°52.463 0.3 50 5.8 103810 89
2001-12-07 09:00:24 51°17.289 2°52.451 0.2 49 5.8 103810 89
2001-12-07 09:00:31 51°17.302 2°52.429 0.5 41 5.8 103810 89
2001-12-07 09:00:36 51°17.312 2°52.414 0.4 40 5.8 103810 89
2001-12-07 09:00:41 51°17.322 2°52.399 0.3 40 5.9 103810 89
2001-12-07 09:00:46 51°17.333 2°52.385 0.1 40 5.9 103810 89
2001-12-07 09:00:50 51°17.341 2°52.374 0.1 40 5.9 103800 89
2001-12-07 09:00:55 51°17.352 2°52.361   39 5.9 103800 89
2001-12-07 09:01:00 51°17.363 2°52.349   10 6 103800 89
2001-12-07 09:01:05 51°17.375 2°52.336   341 6 103800 89
2001-12-07 09:01:10 51°17.386 2°52.324 0.3 326 6 103800 89
2001-12-07 09:01:15 51°17.397 2°52.311 0.4 325 6 103800 89
2001-12-07 09:01:20 51°17.408 2°52.299 0.4 323 6 103810 89
2001-12-07 09:01:25 51°17.419 2°52.286 0.4 321 6 103810 89
2001-12-07 09:01:29 51°17.428 2°52.276 0.4 321 6.1 103800 89
2001-12-07 09:01:35 51°17.441 2°52.26 0.3 324 6.1 103800 89
2001-12-07 09:01:39 51°17.45 2°52.249 0.4 11 6.1 103810 89
2001-12-07 09:01:46 51°17.465 2°52.23 0.4 10 6.1 103810 89
2001-12-07 09:01:50 51°17.473 2°52.218 0.2 5 6.1 103800 89
2001-12-07 09:01:55 51°17.483 2°52.204 0.2 9 6.1 103800 89
2001-12-07 09:02:00 51°17.493 2°52.189 0.2 10 6.1 103810 89
2001-12-07 09:02:05 51°17.504 2°52.175 0.1 40 6.1 103810 89
2001-12-07 09:02:10 51°17.514 2°52.16 0.1 28 6.1 103810 89
2001-12-07 09:02:15 51°17.524 2°52.145 0.1 39 6.1 103810 89
2001-12-07 09:02:21 51°17.536 2°52.128 0.2 68 6.1 103810 88
2001-12-07 09:02:26 51°17.546 2°52.114 0.2 97 6.1 103810 88
2001-12-07 09:02:31 51°17.556 2°52.099 0.1 102 6.1 103810 88
2001-12-07 09:02:35 51°17.564 2°52.088 0.1 113 6.1 103810 88
2001-12-07 09:02:39 51°17.573 2°52.077 0.1 117 6.1 103810 88
2001-12-07 09:02:45 51°17.585 2°52.061   117 6.1 103810 88
2001-12-07 09:02:49 51°17.594 2°52.05   117 6.1 103810 88
2001-12-07 09:02:55 51°17.607 2°52.034   117 6.1 103810 88
2001-12-07 09:02:59 51°17.615 2°52.023 0.2 104 6.1 103810 88
2001-12-07 09:03:05 51°17.628 2°52.008 0.8 317 6.1 103810 88
2001-12-07 09:03:09 51°17.637 2°51.997 1.2 313 6.2 103810 88
2001-12-07 09:03:15 51°17.65 2°51.982 0.8 295 6.2 103810 88
2001-12-07 09:03:19 51°17.659 2°51.972 1.1 310 6.2 103800 88
2001-12-07 09:03:25 51°17.672 2°51.957 0.6 308 6.2 103800 88
2001-12-07 09:03:30 51°17.683 2°51.944 0.6 287 6.2 103810 88
2001-12-07 09:03:35 51°17.694 2°51.932 0.4 257 6.2 103810 88
2001-12-07 09:03:39 51°17.703 2°51.921 0.3 257 6.2 103810 88
2001-12-07 09:03:45 51°17.716 2°51.906 0.4 302 6.2 103810 88
2001-12-07 09:03:49 51°17.725 2°51.896 0.7 311 6.2 103810 88
2001-12-07 09:03:55 51°17.738 2°51.88 1 340 6.2 103810 88
2001-12-07 09:03:59 51°17.746 2°51.87 1 339 6.2 103810 88
2001-12-07 09:04:05 51°17.759 2°51.854 0.6 342 6.2 103810 88
2001-12-07 09:04:10 51°17.769 2°51.84 0.8 338 6.3 103810 88
2001-12-07 09:04:15 51°17.78 2°51.827 0.3 48 6.3 103810 88
2001-12-07 09:04:19 51°17.788 2°51.816 0.2 59 6.3 103800 88
2001-12-07 09:04:25 51°17.801 2°51.801 0.2 69 6.3 103800 88
2001-12-07 09:04:29 51°17.809 2°51.791 0.2 136 6.3 103810 88
2001-12-07 09:04:35 51°17.821 2°51.777 0.1 160 6.3 103810 88
2001-12-07 09:04:40 51°17.831 2°51.765 0.3 263 6.5 103810 88
2001-12-07 09:04:45 51°17.841 2°51.754 0.4 202 6.5 103810 88
2001-12-07 09:04:50 51°17.851 2°51.743 0.5 195 6.3 103810 88
2001-12-07 09:04:54 51°17.859 2°51.734 0.5 208 6.3 103810 88
2001-12-07 09:04:59 51°17.868 2°51.722 0.4 162 6.3 103810 88
2001-12-07 09:05:04 51°17.877 2°51.711 0.3 89 6.3 103810 88
2001-12-07 09:05:09 51°17.887 2°51.699 0.3 60 6.4 103810 88
2001-12-07 09:05:15 51°17.897 2°51.685 0.2 81 6.4 103810 88
2001-12-07 09:05:20 51°17.906 2°51.673 0.2 108 6.4 103800 88
2001-12-07 09:05:25 51°17.915 2°51.662 0.4 118 6.4 103800 88
2001-12-07 09:05:30 51°17.924 2°51.651 0.2 115 6.4 103800 88
2001-12-07 09:05:34 51°17.931 2°51.642 0.1 157 6.4 103800 88
2001-12-07 09:05:39 51°17.94 2°51.632 0.5 151 6.4 103810 88
2001-12-07 09:05:45 51°17.952 2°51.62 0.7 104 6.4 103810 88
2001-12-07 09:05:49 51°17.959 2°51.612 1 133 6.5 103810 88
2001-12-07 09:05:55 51°17.97 2°51.599 0.9 121 6.5 103810 88
2001-12-07 09:06:00 51°17.979 2°51.59 1.3 172 6.5 103810 88
2001-12-07 09:06:05 51°17.989 2°51.58 0.7 181 6.5 103810 88
2001-12-07 09:06:09 51°17.996 2°51.573 0.5 181 6.5 103810 88
2001-12-07 09:06:14 51°18.006 2°51.563 0.6 167 6.5 103810 88
2001-12-07 09:06:20 51°18.017 2°51.551 0.7 161 6.5 103800 88
2001-12-07 09:06:24 51°18.025 2°51.544 1.7 168 6.5 103800 88
2001-12-07 09:06:30 51°18.036 2°51.532 1.7 162 6.6 103800 88
2001-12-07 09:06:35 51°18.045 2°51.522 1.7 160 6.6 103800 88
2001-12-07 09:06:39 51°18.052 2°51.514 1.4 176 6.6 103810 88
2001-12-07 09:06:44 51°18.061 2°51.503 1.7 152 6.6 103810 88
2001-12-07 09:06:49 51°18.07 2°51.493 1 138 6.6 103810 88
2001-12-07 09:06:55 51°18.081 2°51.48 0.8 122 6.6 103810 88
2001-12-07 09:06:59 51°18.088 2°51.471 1 125 6.6 103800 88
2001-12-07 09:07:05 51°18.099 2°51.458 1.2 146 6.6 103800 88
2001-12-07 09:07:10 51°18.108 2°51.447 0.9 127 6.6 103800 88
2001-12-07 09:07:15 51°18.117 2°51.436 0.7 125 6.6 103800 88
2001-12-07 09:07:19 51°18.124 2°51.426 0.8 191 6.6 103800 88
2001-12-07 09:07:24 51°18.132 2°51.415 1.2 144 6.6 103800 88
2001-12-07 09:07:31 51°18.144 2°51.399 1 166 6.6 103800 88
2001-12-07 09:07:36 51°18.153 2°51.388 1.2 171 6.6 103800 88
2001-12-07 09:07:41 51°18.162 2°51.376 1.2 109 6.6 103800 87
2001-12-07 09:07:46 51°18.17 2°51.365 1.6 129 6.6 103800 87
2001-12-07 09:07:50 51°18.177 2°51.355 1.8 127 6.6 103800 87
2001-12-07 09:07:55 51°18.185 2°51.343 1.8 118 6.6 103800 87
2001-12-07 09:07:59 51°18.192 2°51.334 1.7 127 6.6 103810 87
2001-12-07 09:08:04 51°18.2 2°51.321 1.5 123 6.6 103810 87
2001-12-07 09:08:10 51°18.21 2°51.306 0.9 120 6.6 103800 87
2001-12-07 09:08:15 51°18.219 2°51.294 0.6 115 6.6 103800 87
2001-12-07 09:08:20 51°18.227 2°51.282 0.8 124 6.6 103800 86
2001-12-07 09:08:25 51°18.235 2°51.271 1.3 129 6.6 103800 86
2001-12-07 09:08:29 51°18.242 2°51.262 1.5 149 6.5 103800 86
2001-12-07 09:08:35 51°18.253 2°51.249 1.3 153 6.5 103800 86
2001-12-07 09:08:39 51°18.26 2°51.24 1.5 177 6.5 103800 86
2001-12-07 09:08:45 51°18.271 2°51.228 1.1 124 6.5 103800 86
2001-12-07 09:08:49 51°18.278 2°51.219 1.2 158 6.5 103800 86
2001-12-07 09:08:55 51°18.289 2°51.207 1.7 134 6.5 103800 86
2001-12-07 09:08:59 51°18.296 2°51.199 1.2 165 6.5 103800 86
2001-12-07 09:09:05 51°18.308 2°51.187 1.6 173 6.5 103800 86
2001-12-07 09:09:10 51°18.317 2°51.178 1.9 171 6.5 103800 86
2001-12-07 09:09:15 51°18.327 2°51.169 1.9 167 6.5 103800 86
2001-12-07 09:09:20 51°18.336 2°51.16 1.8 175 6.5 103810 86
2001-12-07 09:09:24 51°18.344 2°51.153 1.5 167 6.5 103810 86
2001-12-07 09:09:30 51°18.356 2°51.143 1.6 167 6.5 103800 85
2001-12-07 09:09:35 51°18.365 2°51.134 1.9 162 6.5 103800 85
2001-12-07 09:09:40 51°18.375 2°51.124 1.9 156 6.5 103800 85
2001-12-07 09:09:45 51°18.384 2°51.115 1.8 148 6.5 103800 85
2001-12-07 09:09:50 51°18.393 2°51.106 1 154 6.5 103800 85
2001-12-07 09:09:55 51°18.402 2°51.097 1.1 114 6.5 103800 85
2001-12-07 09:09:59 51°18.409 2°51.09 1.4 149 6.4 103800 85
2001-12-07 09:10:05 51°18.418 2°51.079 2.4 155 6.4 103800 85
2001-12-07 09:10:09 51°18.424 2°51.072 3 131 6.4 103800 85
2001-12-07 09:10:15 51°18.432 2°51.063 2.5 146 6.4 103800 85
2001-12-07 09:10:20 51°18.438 2°51.055 3.4 155 6.4 103800 85
2001-12-07 09:10:24 51°18.442 2°51.049 2.8 161 6.4 103800 85
2001-12-07 09:10:29 51°18.447 2°51.044 3.1 175 6.4 103800 85
2001-12-07 09:10:35 51°18.453 2°51.039 3.7 170 6.4 103800 85
2001-12-07 09:10:40 51°18.456 2°51.036 3.6 177 6.4 103800 85
2001-12-07 09:10:44 51°18.459 2°51.033 4.2 181 6.4 103800 85
2001-12-07 09:10:49 51°18.462 2°51.031 4 184 6.4 103800 85
2001-12-07 09:10:55 51°18.464 2°51.029 4.3 182 6.4 103800 85
2001-12-07 09:11:00 51°18.465 2°51.027 4.5 186 6.4 103800 85
2001-12-07 09:11:04 51°18.467 2°51.026 4.3 193 6.4 103800 85
2001-12-07 09:11:10 51°18.468 2°51.024 4.5 189 6.4 103800 84
2001-12-07 09:11:15 51°18.469 2°51.023 4.3 188 6.4 103800 84
2001-12-07 09:11:19 51°18.47 2°51.021 4.2 188 6.4 103800 84
2001-12-07 09:11:24 51°18.472 2°51.02 3.2 195 6.4 103800 84
2001-12-07 09:11:30 51°18.474 2°51.019 4.1 195 6.4 103790 84
2001-12-07 09:11:35 51°18.477 2°51.019 4.2 220 6.4 103790 84
2001-12-07 09:11:39 51°18.48 2°51.019 4.6 241 6.4 103790 84
2001-12-07 09:11:45 51°18.485 2°51.022 4.9 249 6.4 103790 84
2001-12-07 09:11:50 51°18.489 2°51.025 5 254 6.4 103800 84
2001-12-07 09:11:54 51°18.492 2°51.028 5 254 6.4 103800 84
2001-12-07 09:12:00 51°18.495 2°51.032 5.3 257 6.4 103800 84
2001-12-07 09:12:04 51°18.498 2°51.035 5.6 256 6.4 103800 84
2001-12-07 09:12:09 51°18.5 2°51.038 4.7 255 6.4 103790 84
2001-12-07 09:12:15 51°18.503 2°51.041 5 253 6.4 103790 84
2001-12-07 09:12:21 51°18.505 2°51.043 4.7 252 6.4 103790 84
2001-12-07 09:12:25 51°18.506 2°51.044 4.5 252 6.4 103790 84
2001-12-07 09:12:30 51°18.507 2°51.043 4.4 234 6.4 103790 84
2001-12-07 09:12:35 51°18.509 2°51.042 5 247 6.4 103790 84
2001-12-07 09:12:39 51°18.509 2°51.041 4.8 248 6.4 103790 84
2001-12-07 09:12:45 51°18.51 2°51.041 5 251 6.4 103790 84
2001-12-07 09:12:49 51°18.511 2°51.04 4.9 247 6.4 103800 84
2001-12-07 09:12:55 51°18.512 2°51.039 4.9 250 6.4 103800 84
2001-12-07 09:13:00 51°18.513 2°51.038 4.5 247 6.4 103790 84
2001-12-07 09:13:05 51°18.514 2°51.038 4.3 255 6.4 103790 84
2001-12-07 09:13:09 51°18.514 2°51.038 5.1 266 6.4 103790 83
2001-12-07 09:13:15 51°18.516 2°51.041 3.6 280 6.4 103790 83
2001-12-07 09:13:19 51°18.516 2°51.044 5.2 289 6.4 103790 83
2001-12-07 09:13:25 51°18.517 2°51.05 5.9 308 6.4 103790 83
2001-12-07 09:13:29 51°18.518 2°51.055 6.7 316 6.4 103790 83
2001-12-07 09:13:35 51°18.517 2°51.061 6.3 315 6.4 103790 83
2001-12-07 09:13:39 51°18.517 2°51.065 6.5 316 6.4 103790 83
2001-12-07 09:13:44 51°18.516 2°51.069 6.4 304 6.4 103790 83
2001-12-07 09:13:50 51°18.515 2°51.074 6.7 313 6.4 103790 84
2001-12-07 09:13:55 51°18.514 2°51.078 6.3 319 6.4 103790 84
2001-12-07 09:13:59 51°18.514 2°51.08 5.8 315 6.4 103790 83
2001-12-07 09:14:05 51°18.513 2°51.083 5.8 319 6.4 103790 83
2001-12-07 09:14:10 51°18.514 2°51.083 5.5 323 6.4 103790 83
2001-12-07 09:14:15 51°18.514 2°51.083 5.3 320 6.4 103790 83
2001-12-07 09:14:19 51°18.514 2°51.082 5.3 323 6.4 103800 83
2001-12-07 09:14:26 51°18.516 2°51.08 5.2 318 6.4 103800 83
2001-12-07 09:14:29 51°18.516 2°51.08 5.7 322 6.3 103790 83
2001-12-07 09:14:35 51°18.517 2°51.078 5.4 316 6.3 103790 83
2001-12-07 09:14:40 51°18.518 2°51.077 5.7 315 6.3 103800 83
2001-12-07 09:14:45 51°18.519 2°51.076 5.5 311 6.3 103800 83
2001-12-07 09:14:49 51°18.519 2°51.076 5.2 306 6.3 103790 83
2001-12-07 09:14:55 51°18.52 2°51.075 5.2 305 6.3 103790 83
2001-12-07 09:14:59 51°18.521 2°51.074 4.2 301 6.3 103800 83
2001-12-07 09:15:05 51°18.521 2°51.072 4.2 301 6.3 103800 83
2001-12-07 09:15:10 51°18.522 2°51.072 4.3 305 6.3 103790 83
2001-12-07 09:15:15 51°18.523 2°51.071 4.3 302 6.3 103790 83
2001-12-07 09:15:20 51°18.524 2°51.07 5.3 307 6.3 103800 83
2001-12-07 09:15:24 51°18.524 2°51.069 5.2 303 6.3 103800 83
2001-12-07 09:15:30 51°18.525 2°51.068 5.2 306 6.3 103800 84
2001-12-07 09:15:35 51°18.525 2°51.067 5.6 304 6.3 103800 84
2001-12-07 09:15:39 51°18.526 2°51.066 5.2 303 6.4 103790 84
2001-12-07 09:15:45 51°18.527 2°51.065 5.4 304 6.4 103790 84
2001-12-07 09:15:50 51°18.527 2°51.064 4.8 304 6.4 103800 84
2001-12-07 09:15:54 51°18.528 2°51.064 5.2 298 6.4 103800 84
2001-12-07 09:16:00 51°18.528 2°51.063 5.2 296 6.3 103800 83
2001-12-07 09:16:04 51°18.529 2°51.062 5 295 6.3 103800 83
2001-12-07 09:16:10 51°18.53 2°51.061 4.9 299 6.3 103800 83
2001-12-07 09:16:15 51°18.53 2°51.06 5.1 298 6.3 103800 83
2001-12-07 09:16:20 51°18.531 2°51.06 5.2 295 6.2 103790 82
2001-12-07 09:16:25 51°18.531 2°51.059 5 295 6.2 103790 82
2001-12-07 09:16:31 51°18.532 2°51.059 5.2 295 6.3 103800 82
2001-12-07 09:16:35 51°18.533 2°51.058 5.3 299 6.3 103800 82
2001-12-07 09:16:39 51°18.534 2°51.058 5.2 297 6.3 103790 83
2001-12-07 09:16:45 51°18.534 2°51.057 5.4 296 6.3 103790 83
2001-12-07 09:16:50 51°18.535 2°51.057 5.2 293 6.3 103800 83
2001-12-07 09:16:55 51°18.536 2°51.057 5.5 297 6.3 103800 83
2001-12-07 09:16:59 51°18.536 2°51.057 5.2 292 6.3 103800 82
2001-12-07 09:17:05 51°18.537 2°51.057 5.1 294 6.3 103800 82
2001-12-07 09:17:09 51°18.537 2°51.057 4.8 299 6.3 103790 82
2001-12-07 09:17:15 51°18.538 2°51.057 5.1 297 6.3 103790 82
2001-12-07 09:17:20 51°18.538 2°51.058 5 296 6.3 103790 82
2001-12-07 09:17:25 51°18.538 2°51.058 5.2 304 6.3 103790 82
2001-12-07 09:17:29 51°18.539 2°51.058 5.3 302 6.3 103800 83
2001-12-07 09:17:35 51°18.539 2°51.059 4.9 310 6.3 103800 83
2001-12-07 09:17:39 51°18.54 2°51.059 5 311 6.3 103800 82
2001-12-07 09:17:45 51°18.54 2°51.059 4.7 297 6.3 103800 82
2001-12-07 09:17:49 51°18.54 2°51.06 5.5 316 6.3 103800 82
2001-12-07 09:17:55 51°18.54 2°51.061 5.8 322 6.3 103800 82
2001-12-07 09:17:59 51°18.54 2°51.061 5.7 323 6.3 103800 83
2001-12-07 09:18:05 51°18.54 2°51.062 6.2 321 6.3 103800 83
2001-12-07 09:18:09 51°18.54 2°51.062 6.1 320 6.2 103800 83
2001-12-07 09:18:15 51°18.541 2°51.063 6.3 317 6.2 103800 83
2001-12-07 09:18:19 51°18.54 2°51.063 6.1 325 6.3 103800 82
2001-12-07 09:18:24 51°18.54 2°51.063 6.1 326 6.3 103800 82
2001-12-07 09:18:30 51°18.54 2°51.064 6.4 321 6.3 103810 83
2001-12-07 09:18:35 51°18.54 2°51.065 5.9 326 6.3 103810 83
2001-12-07 09:18:40 51°18.54 2°51.065 6 327 6.3 103800 82
2001-12-07 09:18:44 51°18.54 2°51.066 5.7 331 6.3 103800 82
2001-12-07 09:18:49 51°18.539 2°51.066 5.9 332 6.3 103810 82
2001-12-07 09:18:55 51°18.539 2°51.066 5.9 332 6.3 103810 82
2001-12-07 09:19:00 51°18.538 2°51.067 5.4 337 6.2 103810 82
2001-12-07 09:19:05 51°18.538 2°51.067 5.6 336 6.2 103810 82
2001-12-07 09:19:09 51°18.537 2°51.067 5.9 341 6.3 103800 82
2001-12-07 09:19:15 51°18.536 2°51.067 6.5 335 6.3 103800 82
2001-12-07 09:19:19 51°18.536 2°51.068 6.4 340 6.3 103800 83
2001-12-07 09:19:25 51°18.535 2°51.068 6.4 340 6.3 103800 83
2001-12-07 09:19:30 51°18.534 2°51.068 6.2 337 6.3 103800 83
2001-12-07 09:19:35 51°18.533 2°51.068 5.9 345 6.3 103800 83
2001-12-07 09:19:40 51°18.533 2°51.068 6.6 342 6.3 103810 83
2001-12-07 09:19:45 51°18.532 2°51.068 6.7 340 6.3 103810 83
2001-12-07 09:19:49 51°18.531 2°51.068 7 343 6.3 103800 83
2001-12-07 09:19:55 51°18.53 2°51.069 7 343 6.3 103800 83
2001-12-07 09:20:00 51°18.529 2°51.069 6.5 338 6.4 103810 83
2001-12-07 09:20:04 51°18.528 2°51.069 7.1 342 6.4 103810 83
2001-12-07 09:20:09 51°18.527 2°51.069 6.8 343 6.4 103810 83
2001-12-07 09:20:15 51°18.525 2°51.069 6.8 339 6.4 103810 83
2001-12-07 09:20:19 51°18.525 2°51.069 7 343 6.4 103810 83
2001-12-07 09:20:24 51°18.523 2°51.069 7 341 6.4 103810 83
2001-12-07 09:20:28 51°18.522 2°51.069 6.9 341 6.4 103810 82
2001-12-07 09:20:36 51°18.52 2°51.069 6.3 340 6.4 103810 82
2001-12-07 09:20:40 51°18.519 2°51.069 6.7 341 6.4 103810 82
2001-12-07 09:20:45 51°18.518 2°51.069 6.3 336 6.4 103810 82
2001-12-07 09:20:49 51°18.517 2°51.069 7.1 341 6.4 103810 82
2001-12-07 09:20:55 51°18.516 2°51.069 7.2 343 6.4 103810 82
2001-12-07 09:20:59 51°18.514 2°51.069 7.3 346 6.4 103810 82
2001-12-07 09:21:05 51°18.513 2°51.069 7.2 346 6.4 103810 82
2001-12-07 09:21:10 51°18.512 2°51.069 7.2 339 6.4 103810 82
2001-12-07 09:21:16 51°18.51 2°51.069 6.4 340 6.4 103810 82
2001-12-07 09:21:19 51°18.509 2°51.069 6.9 339 6.4 103810 82
2001-12-07 09:21:26 51°18.507 2°51.069 6.8 338 6.4 103810 82
2001-12-07 09:21:30 51°18.506 2°51.07 6.9 339 6.4 103810 82
2001-12-07 09:21:36 51°18.504 2°51.07 7.2 338 6.4 103810 82
2001-12-07 09:21:40 51°18.503 2°51.07 6.6 340 6.4 103810 82
2001-12-07 09:21:44 51°18.502 2°51.07 6.8 342 6.4 103810 82
2001-12-07 09:21:50 51°18.5 2°51.07 6.7 342 6.4 103810 82
2001-12-07 09:21:55 51°18.499 2°51.07 7.1 340 6.4 103810 82
2001-12-07 09:22:00 51°18.497 2°51.07 7.3 341 6.3 103810 82
2001-12-07 09:22:05 51°18.496 2°51.071 6.4 343 6.3 103810 82
2001-12-07 09:22:10 51°18.494 2°51.071 6.9 339 6.4 103810 82
2001-12-07 09:22:16 51°18.493 2°51.071 6.4 339 6.4 103810 82
2001-12-07 09:22:20 51°18.492 2°51.071 6.6 345 6.4 103810 82
2001-12-07 09:22:25 51°18.49 2°51.071 7.7 344 6.4 103810 82
2001-12-07 09:22:30 51°18.489 2°51.071 6.6 339 6.4 103810 82
2001-12-07 09:22:36 51°18.488 2°51.071 6.5 339 6.4 103810 82
2001-12-07 09:22:40 51°18.487 2°51.07 6.6 342 6.4 103810 82
2001-12-07 09:22:45 51°18.486 2°51.07 6.7 340 6.4 103810 82
2001-12-07 09:22:50 51°18.485 2°51.07 6.5 337 6.4 103800 83
2001-12-07 09:22:56 51°18.484 2°51.07 6.5 338 6.4 103800 83
2001-12-07 09:22:59 51°18.483 2°51.07 6.4 337 6.4 103810 82
2001-12-07 09:23:05 51°18.482 2°51.069 6.7 336 6.4 103810 82
2001-12-07 09:23:09 51°18.481 2°51.069 6.1 336 6.4 103810 82
2001-12-07 09:23:14 51°18.48 2°51.069 5.8 336 6.4 103810 82
2001-12-07 09:23:21 51°18.479 2°51.068 5.8 342 6.4 103800 82
2001-12-07 09:23:25 51°18.479 2°51.068 5.6 338 6.4 103800 82
2001-12-07 09:23:30 51°18.478 2°51.067 5.7 340 6.4 103810 82
2001-12-07 09:23:36 51°18.477 2°51.067 5.5 338 6.4 103810 82
2001-12-07 09:23:39 51°18.476 2°51.067 5.8 344 6.4 103810 82
2001-12-07 09:23:44 51°18.476 2°51.066 6.8 344 6.4 103810 82
2001-12-07 09:23:50 51°18.475 2°51.066 6.5 338 6.4 103810 83
2001-12-07 09:23:55 51°18.475 2°51.065 6.1 340 6.4 103810 83
2001-12-07 09:24:00 51°18.474 2°51.064 6.9 344 6.4 103810 83
2001-12-07 09:24:04 51°18.474 2°51.063 6.7 340 6.4 103810 83
2001-12-07 09:24:10 51°18.473 2°51.063 6 347 6.4 103810 83
2001-12-07 09:24:15 51°18.472 2°51.062 6.1 351 6.4 103810 83
2001-12-07 09:24:20 51°18.472 2°51.061 6.4 344 6.4 103810 83
2001-12-07 09:24:26 51°18.471 2°51.06 6.4 338 6.4 103810 83
2001-12-07 09:24:31 51°18.471 2°51.06 6.6 337 6.4 103810 83
2001-12-07 09:24:36 51°18.47 2°51.059 6.4 338 6.4 103810 83
2001-12-07 09:24:41 51°18.47 2°51.058 6.2 343 6.4 103810 83
2001-12-07 09:24:45 51°18.469 2°51.057 5.5 339 6.4 103810 83
2001-12-07 09:24:50 51°18.469 2°51.056 6.2 342 6.4 103800 83
2001-12-07 09:24:55 51°18.468 2°51.055 5.5 347 6.4 103800 83
2001-12-07 09:24:59 51°18.468 2°51.054 5.1 348 6.4 103810 82
2001-12-07 09:25:06 51°18.467 2°51.053 5.3 354 6.4 103810 82
2001-12-07 09:25:10 51°18.467 2°51.052 6.1 346 6.4 103810 82
2001-12-07 09:25:14 51°18.467 2°51.051 6 339 6.4 103810 82
2001-12-07 09:25:20 51°18.466 2°51.05 6.6 347 6.4 103810 82
2001-12-07 09:25:25 51°18.466 2°51.048 5.8 348 6.4 103810 82
2001-12-07 09:25:30 51°18.466 2°51.047 5.6 350 6.5 103800 83
2001-12-07 09:25:35 51°18.466 2°51.046 5.4 350 6.5 103800 83
2001-12-07 09:25:40 51°18.466 2°51.045 5.7 349 6.5 103810 83
2001-12-07 09:25:45 51°18.466 2°51.043 6 356 6.5 103810 83
2001-12-07 09:25:50 51°18.466 2°51.041 5.9 350 6.5 103810 83
2001-12-07 09:25:56 51°18.466 2°51.039 5.9 350 6.5 103810 83
2001-12-07 09:25:59 51°18.466 2°51.038 5.8 352 6.5 103810 83
2001-12-07 09:26:05 51°18.467 2°51.036 5.8 352 6.5 103810 83
2001-12-07 09:26:10 51°18.467 2°51.035 5.9 352 6.5 103810 83
2001-12-07 09:26:15 51°18.467 2°51.033 5.6 351 6.5 103810 83
2001-12-07 09:26:21 51°18.467 2°51.031 5.2 355 6.5 103810 83
2001-12-07 09:26:24 51°18.467 2°51.03 6.1 350 6.5 103810 83
2001-12-07 09:26:29 51°18.466 2°51.029 6.9 353 6.5 103800 83
2001-12-07 09:26:34 51°18.466 2°51.027 6.4 346 6.5 103800 83
2001-12-07 09:26:40 51°18.465 2°51.026 6.2 353 6.5 103800 83
2001-12-07 09:26:45 51°18.465 2°51.024 5.6 351 6.5 103800 83
2001-12-07 09:26:50 51°18.464 2°51.023 5.9 353 6.5 103800 83
2001-12-07 09:26:55 51°18.464 2°51.022 5.9 351 6.5 103800 83
2001-12-07 09:26:59 51°18.463 2°51.021 5.9 351 6.5 103800 83
2001-12-07 09:27:06 51°18.463 2°51.019 5.9 346 6.5 103800 83
2001-12-07 09:27:10 51°18.462 2°51.018 6 345 6.5 103810 83
2001-12-07 09:27:15 51°18.462 2°51.017 6.2 339 6.5 103810 83
2001-12-07 09:27:20 51°18.461 2°51.016 5.4 349 6.5 103800 83
2001-12-07 09:27:26 51°18.46 2°51.014 5.3 344 6.5 103800 83
2001-12-07 09:27:30 51°18.46 2°51.014 5 350 6.5 103800 83
2001-12-07 09:27:35 51°18.459 2°51.012 6 351 6.5 103800 83
2001-12-07 09:27:39 51°18.459 2°51.012 6.6 343 6.5 103800 83
2001-12-07 09:27:44 51°18.459 2°51.01 6.4 339 6.5 103800 83
2001-12-07 09:27:50 51°18.458 2°51.009 6.1 340 6.5 103810 83
2001-12-07 09:27:55 51°18.457 2°51.008 6.3 336 6.5 103810 83
2001-12-07 09:27:59 51°18.457 2°51.007 5.9 336 6.5 103800 83
2001-12-07 09:28:05 51°18.456 2°51.006 6.1 335 6.5 103800 83
2001-12-07 09:28:09 51°18.456 2°51.005 5.6 338 6.5 103810 83
2001-12-07 09:28:15 51°18.455 2°51.004 5.4 335 6.5 103810 83
2001-12-07 09:28:20 51°18.455 2°51.003 5.7 334 6.5 103810 82
2001-12-07 09:28:25 51°18.454 2°51.002 5.4 334 6.5 103810 82
2001-12-07 09:28:31 51°18.454 2°51.001 5.9 336 6.5 103810 82
2001-12-07 09:28:35 51°18.453 2°51 6.1 332 6.5 103810 82
2001-12-07 09:28:41 51°18.453 2°50.999 5.8 334 6.5 103810 82
2001-12-07 09:28:46 51°18.452 2°50.998 5.4 335 6.5 103810 82
2001-12-07 09:28:50 51°18.452 2°50.998 5.9 334 6.5 103810 82
2001-12-07 09:28:56 51°18.451 2°50.997 5.7 335 6.5 103810 82
2001-12-07 09:29:00 51°18.451 2°50.996 5.6 332 6.5 103810 82
2001-12-07 09:29:05 51°18.451 2°50.996 5.2 331 6.5 103810 82
2001-12-07 09:29:10 51°18.45 2°50.995 5.7 330 6.5 103810 82
2001-12-07 09:29:15 51°18.45 2°50.994 5.7 333 6.5 103810 82
2001-12-07 09:29:19 51°18.449 2°50.994 5.3 330 6.5 103810 82
2001-12-07 09:29:25 51°18.449 2°50.993 5.2 332 6.5 103810 82
2001-12-07 09:29:30 51°18.449 2°50.992 5.1 326 6.5 103810 82
2001-12-07 09:29:35 51°18.448 2°50.992 5.3 332 6.5 103810 82
2001-12-07 09:29:40 51°18.448 2°50.991 4.6 322 6.5 103810 82
2001-12-07 09:29:45 51°18.448 2°50.991 5.3 317 6.5 103810 82
2001-12-07 09:29:50 51°18.447 2°50.99 5.5 319 6.5 103810 82
2001-12-07 09:29:55 51°18.447 2°50.99 5.5 319 6.5 103810 82
2001-12-07 09:29:59 51°18.447 2°50.989 5.4 320 6.6 103810 82
2001-12-07 09:30:05 51°18.447 2°50.989 5 315 6.6 103810 82
2001-12-07 09:30:10 51°18.446 2°50.988 4.7 316 6.5 103810 82
2001-12-07 09:30:15 51°18.446 2°50.988 4.4 309 6.5 103810 82
2001-12-07 09:30:20 51°18.446 2°50.988 4.7 315 6.5 103810 82
2001-12-07 09:30:25 51°18.446 2°50.987 4.4 317 6.5 103810 82
2001-12-07 09:30:30 51°18.446 2°50.987 4.3 316 6.5 103810 82
2001-12-07 09:30:35 51°18.446 2°50.987 4.9 314 6.5 103810 82
2001-12-07 09:30:40 51°18.446 2°50.986 5.1 315 6.5 103810 82
2001-12-07 09:30:45 51°18.445 2°50.986 5.1 319 6.5 103810 82
2001-12-07 09:30:50 51°18.446 2°50.985 5.2 313 6.6 103820 82
2001-12-07 09:30:55 51°18.446 2°50.985 5.3 314 6.6 103820 82
2001-12-07 09:31:00 51°18.446 2°50.985 5 307 6.5 103810 82
2001-12-07 09:31:05 51°18.446 2°50.985 5.1 304 6.5 103810 82
2001-12-07 09:31:10 51°18.446 2°50.985 4.7 310 6.5 103820 82
2001-12-07 09:31:15 51°18.446 2°50.985 5 301 6.5 103820 82
2001-12-07 09:31:20 51°18.446 2°50.984 4.8 302 6.5 103810 82
2001-12-07 09:31:25 51°18.446 2°50.984 4.8 301 6.5 103810 82
2001-12-07 09:31:30 51°18.446 2°50.984 4.7 296 6.5 103810 82
2001-12-07 09:31:35 51°18.446 2°50.984 4.6 298 6.5 103810 82
2001-12-07 09:31:40 51°18.446 2°50.984 4.3 298 6.5 103810 82
2001-12-07 09:31:45 51°18.446 2°50.984 4.8 300 6.5 103810 82
2001-12-07 09:31:50 51°18.446 2°50.984 4.8 297 6.5 103810 82
2001-12-07 09:31:55 51°18.446 2°50.983 4.5 297 6.5 103810 82
2001-12-07 09:32:00 51°18.447 2°50.983 4.9 299 6.5 103810 82
2001-12-07 09:32:05 51°18.447 2°50.983 4.9 297 6.5 103810 82
2001-12-07 09:32:10 51°18.447 2°50.983 4.5 301 6.5 103810 82
2001-12-07 09:32:15 51°18.447 2°50.983 4.4 308 6.5 103810 82
2001-12-07 09:32:19 51°18.447 2°50.983 4.8 303 6.5 103810 82
2001-12-07 09:32:25 51°18.447 2°50.983 4.8 300 6.5 103810 82
2001-12-07 09:32:30 51°18.447 2°50.983 4.7 295 6.5 103810 82
2001-12-07 09:32:35 51°18.448 2°50.983 5.1 303 6.5 103810 82
2001-12-07 09:32:40 51°18.448 2°50.983 4.4 298 6.5 103820 83
2001-12-07 09:32:45 51°18.448 2°50.983 4.4 297 6.5 103820 83
2001-12-07 09:32:50 51°18.448 2°50.983 4.7 298 6.5 103810 82
2001-12-07 09:32:55 51°18.448 2°50.983 4.5 302 6.5 103810 82
2001-12-07 09:33:00 51°18.449 2°50.983 4.3 312 6.5 103820 83
2001-12-07 09:33:06 51°18.449 2°50.982 4.2 314 6.5 103820 83
2001-12-07 09:33:10 51°18.449 2°50.982 4.4 303 6.5 103810 82
2001-12-07 09:33:15 51°18.449 2°50.983 4.3 302 6.5 103810 82
2001-12-07 09:33:20 51°18.449 2°50.983 4.9 309 6.5 103810 82
2001-12-07 09:33:24 51°18.449 2°50.983 5.1 304 6.5 103810 82
2001-12-07 09:33:29 51°18.45 2°50.983 4.5 305 6.5 103820 83
2001-12-07 09:33:35 51°18.45 2°50.983 4.8 307 6.5 103820 83
2001-12-07 09:33:40 51°18.449 2°50.983 4.8 310 6.5 103810 83
2001-12-07 09:33:45 51°18.449 2°50.983 4.7 306 6.5 103810 83
2001-12-07 09:33:49 51°18.45 2°50.983 4.6 311 6.5 103820 82
2001-12-07 09:33:55 51°18.45 2°50.983 5.1 311 6.5 103820 82
2001-12-07 09:33:59 51°18.45 2°50.983 4.9 304 6.5 103810 82
2001-12-07 09:34:05 51°18.45 2°50.983 4.2 300 6.5 103810 82
2001-12-07 09:34:10 51°18.45 2°50.982 4.5 310 6.5 103820 82
2001-12-07 09:34:14 51°18.45 2°50.983 4.9 313 6.5 103820 82
2001-12-07 09:34:20 51°18.45 2°50.983 4.4 298 6.5 103810 83
2001-12-07 09:34:25 51°18.45 2°50.983 4.6 301 6.5 103810 83
2001-12-07 09:34:30 51°18.45 2°50.982 4.2 311 6.5 103820 83
2001-12-07 09:34:35 51°18.45 2°50.982 4.1 301 6.5 103820 83
2001-12-07 09:34:39 51°18.45 2°50.982 5 300 6.5 103810 83
2001-12-07 09:34:46 51°18.45 2°50.982 4.9 316 6.5 103810 83
2001-12-07 09:34:50 51°18.45 2°50.982 4.9 314 6.5 103820 83
2001-12-07 09:34:55 51°18.45 2°50.982 5 320 6.5 103820 83
2001-12-07 09:35:00 51°18.45 2°50.982 4.8 313 6.5 103820 83
2001-12-07 09:35:05 51°18.45 2°50.982 5 318 6.5 103820 83
2001-12-07 09:35:11 51°18.45 2°50.982 5.1 316 6.5 103820 83
2001-12-07 09:35:15 51°18.45 2°50.982 4.8 309 6.5 103820 83
2001-12-07 09:35:20 51°18.45 2°50.982 4.9 319 6.5 103820 83
2001-12-07 09:35:25 51°18.45 2°50.982 4.6 315 6.5 103820 83
2001-12-07 09:35:30 51°18.449 2°50.981 4.4 320 6.5 103820 83
2001-12-07 09:35:35 51°18.449 2°50.981 4.5 318 6.5 103820 83
2001-12-07 09:35:40 51°18.449 2°50.981 4.4 315 6.5 103820 83
2001-12-07 09:35:44 51°18.449 2°50.981 4.8 319 6.5 103820 83
2001-12-07 09:35:50 51°18.449 2°50.981 4.9 317 6.5 103820 83
2001-12-07 09:35:56 51°18.449 2°50.98 4.9 318 6.5 103820 83
2001-12-07 09:36:00 51°18.449 2°50.98 4.8 326 6.5 103820 83
2001-12-07 09:36:05 51°18.448 2°50.98 4.9 318 6.5 103820 83
2001-12-07 09:36:10 51°18.448 2°50.979 4.6 320 6.5 103820 83
2001-12-07 09:36:15 51°18.448 2°50.979 4.3 320 6.5 103820 83
2001-12-07 09:36:19 51°18.448 2°50.979 5.1 326 6.5 103820 83
2001-12-07 09:36:25 51°18.448 2°50.978 5.1 323 6.5 103820 83
2001-12-07 09:36:30 51°18.447 2°50.978 4.8 325 6.5 103820 83
2001-12-07 09:36:34 51°18.447 2°50.978 5 325 6.5 103820 83
2001-12-07 09:36:40 51°18.447 2°50.977 5 319 6.6 103820 83
2001-12-07 09:36:45 51°18.447 2°50.977 5.1 326 6.6 103820 83
2001-12-07 09:36:49 51°18.447 2°50.977 5 320 6.5 103820 83
2001-12-07 09:36:55 51°18.446 2°50.976 4.5 315 6.5 103820 83
2001-12-07 09:36:59 51°18.446 2°50.976 5.1 332 6.5 103820 83
2001-12-07 09:37:05 51°18.446 2°50.975 5.4 332 6.5 103820 83
2001-12-07 09:37:09 51°18.446 2°50.975 5 327 6.5 103830 83
2001-12-07 09:37:15 51°18.446 2°50.975 5.2 323 6.5 103830 83
2001-12-07 09:37:20 51°18.445 2°50.974 5.1 321 6.5 103820 83
2001-12-07 09:37:25 51°18.445 2°50.974 4.8 327 6.5 103820 83
2001-12-07 09:37:30 51°18.445 2°50.973 4.9 330 6.5 103820 83
2001-12-07 09:37:35 51°18.445 2°50.973 4.8 317 6.5 103820 83
2001-12-07 09:37:40 51°18.444 2°50.972 5.5 310 6.5 103820 83
2001-12-07 09:37:45 51°18.444 2°50.972 4.7 329 6.5 103820 83
2001-12-07 09:37:50 51°18.443 2°50.971 5 319 6.5 103830 83
2001-12-07 09:37:55 51°18.443 2°50.971 4.7 320 6.5 103830 83
2001-12-07 09:38:00 51°18.442 2°50.97 5.1 333 6.6 103830 83
2001-12-07 09:38:04 51°18.442 2°50.971 5.3 332 6.6 103830 83
2001-12-07 09:38:10 51°18.44 2°50.972 5.4 325 6.6 103830 83
2001-12-07 09:38:16 51°18.438 2°50.974 6.1 320 6.6 103830 83
2001-12-07 09:38:20 51°18.437 2°50.976 5.9 318 6.6 103830 83
2001-12-07 09:38:25 51°18.435 2°50.979 5.5 315 6.6 103830 83
2001-12-07 09:38:30 51°18.433 2°50.982 5.9 317 6.6 103820 83
2001-12-07 09:38:35 51°18.432 2°50.987 6.1 316 6.6 103820 83
2001-12-07 09:38:39 51°18.431 2°50.991 5.9 300 6.6 103820 83
2001-12-07 09:38:46 51°18.43 2°51 5.6 299 6.6 103820 83
2001-12-07 09:38:50 51°18.429 2°51.005 5.3 295 6.6 103820 83
2001-12-07 09:38:56 51°18.43 2°51.013 5.3 286 6.6 103820 83
2001-12-07 09:39:00 51°18.431 2°51.019 5.2 288 6.6 103820 82
2001-12-07 09:39:05 51°18.432 2°51.026 4.7 270 6.6 103820 82
2001-12-07 09:39:10 51°18.434 2°51.033 4.5 266 6.6 103820 82
2001-12-07 09:39:15 51°18.437 2°51.04 4.5 264 6.6 103820 82
2001-12-07 09:39:20 51°18.441 2°51.046 4.2 258 6.5 103820 82
2001-12-07 09:39:25 51°18.445 2°51.052 3.9 252 6.5 103820 82
2001-12-07 09:39:30 51°18.45 2°51.058 3.3 244 6.5 103820 82
2001-12-07 09:39:36 51°18.458 2°51.064 3.1 238 6.5 103820 82
2001-12-07 09:39:41 51°18.465 2°51.067 2.9 230 6.5 103820 82
2001-12-07 09:39:46 51°18.474 2°51.068 2.8 315 6.5 103820 82
2001-12-07 09:39:50 51°18.481 2°51.068 2.7 218 6.5 103830 82
2001-12-07 09:39:56 51°18.491 2°51.064 2.5 194 6.5 103830 82
2001-12-07 09:40:00 51°18.498 2°51.06 1.4 180 6.5 103830 83
2001-12-07 09:40:04 51°18.505 2°51.054 1.3 146 6.5 103830 83
2001-12-07 09:40:09 51°18.513 2°51.045 0.9 22 6.6 103830 83
2001-12-07 09:40:16 51°18.523 2°51.028 2.6 37 6.6 103830 83
2001-12-07 09:40:20 51°18.528 2°51.018 3 359 6.6 103830 83
2001-12-07 09:40:25 51°18.533 2°51.003 2.8 9 6.6 103830 83
2001-12-07 09:40:29 51°18.537 2°50.99 1.8 224 6.6 103830 83
2001-12-07 09:40:35 51°18.541 2°50.969 3 23 6.6 103830 83
2001-12-07 09:40:39 51°18.544 2°50.954 3.5 11 6.6 103830 83
2001-12-07 09:40:45 51°18.548 2°50.931 3.4 292 6.6 103830 83
2001-12-07 09:40:49 51°18.55 2°50.916 2.9 289 6.6 103830 84
2001-12-07 09:40:55 51°18.554 2°50.892 3.2 264 6.6 103830 84
2001-12-07 09:40:59 51°18.557 2°50.875 3.4 299 6.6 103840 84
2001-12-07 09:41:05 51°18.561 2°50.849 3.3 357 6.6 103840 84
2001-12-07 09:41:09 51°18.563 2°50.832 3.7 265 6.6 103830 83
2001-12-07 09:41:15 51°18.567 2°50.806 3.5 272 6.6 103830 83
2001-12-07 09:41:20 51°18.569 2°50.784 3.7 21 6.6 103830 83
2001-12-07 09:41:25 51°18.571 2°50.762 4.9 27 6.6 103830 83
2001-12-07 09:41:30 51°18.574 2°50.739 3.1 18 6.6 103830 83
2001-12-07 09:41:35 51°18.576 2°50.717 3.4 29 6.6 103830 83
2001-12-07 09:41:39 51°18.579 2°50.699 3.5 13 6.6 103840 83
2001-12-07 09:41:45 51°18.582 2°50.671 3.2 24 6.6 103840 83
2001-12-07 09:41:50 51°18.585 2°50.649 3.6 8 6.6 103830 83
2001-12-07 09:41:55 51°18.588 2°50.626 4.1 303 6.6 103830 83
2001-12-07 09:42:00 51°18.592 2°50.603 3.2 33 6.6 103830 83
2001-12-07 09:42:05 51°18.595 2°50.581 3.2 26 6.6 103830 83
2001-12-07 09:42:09 51°18.598 2°50.563 2.4 28 6.6 103830 83
2001-12-07 09:42:15 51°18.603 2°50.536 2.5 36 6.6 103830 83
2001-12-07 09:42:20 51°18.606 2°50.513 3.5 37 6.6 103830 83
2001-12-07 09:42:25 51°18.61 2°50.491 3.6 17 6.6 103830 83
2001-12-07 09:42:30 51°18.613 2°50.468 3.7 20 6.7 103830 83
2001-12-07 09:42:35 51°18.617 2°50.446 3.4 265 6.7 103830 83
2001-12-07 09:42:40 51°18.62 2°50.423 2.5 30 6.7 103840 83
2001-12-07 09:42:45 51°18.624 2°50.4 3.1 35 6.7 103840 83
2001-12-07 09:42:50 51°18.627 2°50.378 3.5 29 6.7 103840 83
2001-12-07 09:42:55 51°18.631 2°50.355 3.3 347 6.7 103840 83
2001-12-07 09:42:59 51°18.633 2°50.337 2.7 108 6.7 103840 83
2001-12-07 09:43:05 51°18.637 2°50.31 2.8 263 6.7 103840 83
2001-12-07 09:43:10 51°18.641 2°50.287 3.3 31 6.7 103830 83
2001-12-07 09:43:15 51°18.644 2°50.265 2.4 33 6.7 103830 83
2001-12-07 09:43:20 51°18.648 2°50.242 4 20 6.7 103840 83
2001-12-07 09:43:25 51°18.651 2°50.22 2.7 21 6.7 103840 83
2001-12-07 09:43:31 51°18.655 2°50.193 3.6 29 6.7 103830 83
2001-12-07 09:43:35 51°18.658 2°50.174 4.6 24 6.7 103830 83
2001-12-07 09:43:40 51°18.661 2°50.152 3.6 26 6.7 103830 83
2001-12-07 09:43:44 51°18.664 2°50.134 4.5 33 6.7 103830 83
2001-12-07 09:43:50 51°18.668 2°50.107 3.9 28 6.7 103840 83
2001-12-07 09:43:55 51°18.672 2°50.084 3.7 299 6.7 103840 83
2001-12-07 09:44:00 51°18.675 2°50.062 3.4 270 6.7 103830 83
2001-12-07 09:44:05 51°18.678 2°50.039 2.9 125 6.7 103830 83
2001-12-07 09:44:10 51°18.682 2°50.017 3 91 6.8 103830 83
2001-12-07 09:44:15 51°18.685 2°49.994 2 348 6.8 103830 83
2001-12-07 09:44:20 51°18.689 2°49.972 3.2 132 6.8 103840 83
2001-12-07 09:44:24 51°18.692 2°49.954 2.3 68 6.8 103840 83
2001-12-07 09:44:30 51°18.696 2°49.927 3.2 333 6.8 103840 83
2001-12-07 09:44:36 51°18.7 2°49.9 2.8 114 6.8 103840 83
2001-12-07 09:44:40 51°18.703 2°49.882 2.5 197 6.8 103840 83
2001-12-07 09:44:46 51°18.707 2°49.855 4.6 346 6.8 103840 83
2001-12-07 09:44:50 51°18.709 2°49.836 3.9 282 6.8 103830 83
2001-12-07 09:44:56 51°18.714 2°49.809 3.7 274 6.8 103830 83
2001-12-07 09:44:59 51°18.716 2°49.796 5 240 6.8 103830 83
2001-12-07 09:45:05 51°18.72 2°49.769 3.6 358 6.8 103830 83
2001-12-07 09:45:10 51°18.724 2°49.746 3.6 83 6.8 103830 83
2001-12-07 09:45:15 51°18.727 2°49.724 3.4 171 6.8 103830 83
2001-12-07 09:45:19 51°18.73 2°49.706 2.7 307 6.9 103840 83
2001-12-07 09:45:25 51°18.734 2°49.679 2.1 231 6.9 103840 83
2001-12-07 09:45:30 51°18.738 2°49.656 3.3 227 6.8 103830 83
2001-12-07 09:45:36 51°18.742 2°49.629 2.8 186 6.8 103830 83
2001-12-07 09:45:40 51°18.745 2°49.611 3.2 169 6.8 103830 82
2001-12-07 09:45:46 51°18.75 2°49.584 3.6 335 6.8 103830 82
2001-12-07 09:45:50 51°18.752 2°49.566 3.3 133 6.8 103830 82
2001-12-07 09:45:55 51°18.756 2°49.543 3.1 138 6.8 103830 82
2001-12-07 09:46:00 51°18.759 2°49.521 3.8 251 6.8 103840 82
2001-12-07 09:46:05 51°18.763 2°49.498 4.1 260 6.8 103840 82
2001-12-07 09:46:11 51°18.767 2°49.471 3.7 219 6.9 103830 82
2001-12-07 09:46:15 51°18.77 2°49.452 2.9 127 6.9 103830 82
2001-12-07 09:46:20 51°18.774 2°49.43 3.3 329 6.8 103840 82
2001-12-07 09:46:24 51°18.777 2°49.412 3.1 15 6.8 103840 82
2001-12-07 09:46:30 51°18.781 2°49.384 3.3 358 6.8 103840 82
2001-12-07 09:46:35 51°18.785 2°49.362 1.8 291 6.8 103840 82
2001-12-07 09:46:39 51°18.788 2°49.344 3.9 115 6.8 103840 82
2001-12-07 09:46:45 51°18.792 2°49.316 3.8 128 6.8 103840 82
2001-12-07 09:46:49 51°18.795 2°49.298 3.1 273 6.8 103830 82
2001-12-07 09:46:54 51°18.799 2°49.275 3.4 166 6.8 103830 82
2001-12-07 09:46:59 51°18.803 2°49.253 2.7 336 6.8 103840 81
2001-12-07 09:47:05 51°18.807 2°49.225 3.5 292 6.8 103840 81
2001-12-07 09:47:09 51°18.81 2°49.207 1.9 290 6.8 103840 82
2001-12-07 09:47:16 51°18.815 2°49.176 2.7 126 6.8 103840 82
2001-12-07 09:47:20 51°18.818 2°49.157 3.4 120 6.8 103840 81
2001-12-07 09:47:25 51°18.822 2°49.135 3 301 6.8 103840 81
2001-12-07 09:47:30 51°18.825 2°49.112 3.3 131 6.8 103840 81
2001-12-07 09:47:35 51°18.829 2°49.089 3.6 329 6.8 103840 81
2001-12-07 09:47:40 51°18.833 2°49.067 3.1 333 6.8 103830 81
2001-12-07 09:47:45 51°18.836 2°49.044 3.6 167 6.8 103830 81
2001-12-07 09:47:50 51°18.84 2°49.022 2.9 354 6.8 103830 82
2001-12-07 09:47:55 51°18.843 2°48.999 3.1 282 6.8 103830 82
2001-12-07 09:48:00 51°18.847 2°48.976 2.5 131 6.8 103830 82
2001-12-07 09:48:05 51°18.85 2°48.954 2.3 9 6.8 103830 82
2001-12-07 09:48:10 51°18.854 2°48.931 2.4 286 6.9 103830 82
2001-12-07 09:48:15 51°18.858 2°48.908 3.3 206 6.9 103830 82
2001-12-07 09:48:20 51°18.862 2°48.886 3 247 6.8 103840 81
2001-12-07 09:48:25 51°18.866 2°48.863 3.2 118 6.8 103840 81
2001-12-07 09:48:29 51°18.868 2°48.845 3.5 352 6.8 103840 81
2001-12-07 09:48:35 51°18.873 2°48.818 2.7 75 6.8 103840 81
2001-12-07 09:48:40 51°18.877 2°48.795 2.9 338 6.9 103830 82
2001-12-07 09:48:44 51°18.88 2°48.777 2.8 342 6.9 103830 82
2001-12-07 09:48:49 51°18.883 2°48.755 2.8 10 6.9 103840 82
2001-12-07 09:48:55 51°18.888 2°48.728 3.6 310 6.9 103840 82
2001-12-07 09:48:59 51°18.891 2°48.71 3.4 104 6.9 103830 82
2001-12-07 09:49:04 51°18.894 2°48.687 3.6 307 6.9 103830 82
2001-12-07 09:49:10 51°18.898 2°48.66 3.3 282 6.9 103840 81
2001-12-07 09:49:15 51°18.902 2°48.638 3 253 6.9 103840 81
2001-12-07 09:49:20 51°18.905 2°48.615 3 95 6.9 103840 82
2001-12-07 09:49:26 51°18.91 2°48.588 3.6 86 6.9 103840 82
2001-12-07 09:49:29 51°18.912 2°48.575 3.5 8 6.9 103840 82
2001-12-07 09:49:35 51°18.916 2°48.548 3.8 319 6.9 103840 82
2001-12-07 09:49:40 51°18.92 2°48.525 3.6 316 6.9 103830 82
2001-12-07 09:49:45 51°18.923 2°48.503 3.1 259 6.9 103830 82
2001-12-07 09:49:49 51°18.926 2°48.485 4 261 6.9 103840 82
2001-12-07 09:49:54 51°18.93 2°48.463 4.7 292 6.9 103840 82
2001-12-07 09:50:00 51°18.934 2°48.436 3.4 88 6.9 103840 82
2001-12-07 09:50:04 51°18.937 2°48.418 4.5 320 6.9 103840 82
2001-12-07 09:50:10 51°18.941 2°48.39 5.3 277 6.9 103840 82
2001-12-07 09:50:14 51°18.943 2°48.372 4.9 244 6.9 103840 82
2001-12-07 09:50:21 51°18.948 2°48.341 4.2 198 7 103840 82
2001-12-07 09:50:25 51°18.951 2°48.323 4.1 135 7 103840 82
2001-12-07 09:50:29 51°18.954 2°48.305 3.2 133 7 103840 82
2001-12-07 09:50:34 51°18.957 2°48.282 3.4 320 7 103840 82
2001-12-07 09:50:40 51°18.961 2°48.255 3.1 141 7 103840 82
2001-12-07 09:50:46 51°18.965 2°48.228 3.1 301 7 103840 82
2001-12-07 09:50:50 51°18.968 2°48.21 3.8 102 7 103830 81
2001-12-07 09:50:55 51°18.971 2°48.187 3.5 173 7 103830 81
2001-12-07 09:51:00 51°18.974 2°48.165 4.3 358 6.9 103830 81
2001-12-07 09:51:05 51°18.978 2°48.142 3.8 316 6.9 103830 81
2001-12-07 09:51:09 51°18.98 2°48.124 2.7 249 6.9 103840 81
2001-12-07 09:51:15 51°18.984 2°48.097 3.4 141 6.9 103840 81
2001-12-07 09:51:21 51°18.988 2°48.069 3.8 132 6.9 103840 81
2001-12-07 09:51:26 51°18.991 2°48.047 3 343 6.9 103840 81
2001-12-07 09:51:30 51°18.994 2°48.029 2.6 329 6.9 103830 81
2001-12-07 09:51:35 51°18.997 2°48.006 2.4 92 6.9 103830 81
2001-12-07 09:51:39 51°18.999 2°47.988 2.2 335 6.9 103840 81
2001-12-07 09:51:45 51°19.003 2°47.961 1.6 351 6.9 103840 81
2001-12-07 09:51:51 51°19.007 2°47.934 1.6 291 7.1 103840 81
2001-12-07 09:51:56 51°19.01 2°47.911 2.6 215 7.1 103840 81
2001-12-07 09:52:01 51°19.014 2°47.888 2.3 265 6.9 103840 81
2001-12-07 09:52:04 51°19.015 2°47.874 2.7 80 6.9 103840 81
2001-12-07 09:52:10 51°19.019 2°47.847 2.9 117 6.9 103840 81
2001-12-07 09:52:15 51°19.022 2°47.825 2.4 15 6.9 103840 81
2001-12-07 09:52:21 51°19.026 2°47.797 4.1 128 6.9 103830 81
2001-12-07 09:52:26 51°19.029 2°47.775 3.4 346 6.9 103830 81
2001-12-07 09:52:30 51°19.032 2°47.757 4 100 7 103840 81
2001-12-07 09:52:34 51°19.034 2°47.738 2.5 317 7 103840 81
2001-12-07 09:52:39 51°19.037 2°47.716 2.6 245 7 103830 81
2001-12-07 09:52:45 51°19.041 2°47.689 3.4 343 7 103830 81
2001-12-07 09:52:50 51°19.044 2°47.666 2 85 7 103830 81
2001-12-07 09:52:55 51°19.047 2°47.644 2.1 253 7 103830 81
2001-12-07 09:53:01 51°19.051 2°47.616 3.5 196 7 103840 81
2001-12-07 09:53:06 51°19.054 2°47.594 3.9 100 7 103840 81
2001-12-07 09:53:10 51°19.057 2°47.576 3.8 101 7 103840 81
2001-12-07 09:53:16 51°19.061 2°47.548 3.6 345 7 103840 81
2001-12-07 09:53:19 51°19.063 2°47.535 4.6 319 7 103840 81
2001-12-07 09:53:26 51°19.067 2°47.503 3.8 358 7 103840 81
2001-12-07 09:53:30 51°19.07 2°47.485 4.1 112 7 103830 81
2001-12-07 09:53:36 51°19.074 2°47.458 4.4 102 7 103830 81
2001-12-07 09:53:41 51°19.077 2°47.435 3.9 133 7 103830 81
2001-12-07 09:53:45 51°19.08 2°47.417 3.3 289 7 103830 81
2001-12-07 09:53:50 51°19.083 2°47.395 3.8 126 7 103830 81
2001-12-07 09:53:55 51°19.087 2°47.372 4.1 105 7 103830 81
2001-12-07 09:54:01 51°19.091 2°47.345 3.5 272 7 103840 81
2001-12-07 09:54:05 51°19.093 2°47.327 4.4 99 7 103840 81
2001-12-07 09:54:09 51°19.096 2°47.309 3.4 320 7 103830 81
2001-12-07 09:54:15 51°19.1 2°47.281 2 98 7 103830 81
2001-12-07 09:54:20 51°19.103 2°47.259 3.3 111 7 103830 81